Time;durP1;ratioP1;P1;durP2;ratioP2;P2;SDS_P1;SDS_P2;PMS_P1;PMS_P2;Temp;Humidity;BMP_temperature;BMP_pressure;BME280_temperature;BME280_humidity;BME280_pressure;Samples;Min_cycle;Max_cycle;Signal;HPM_P1;HPM_P2
2023/05/03 00:00:06;;;;;;;11.32;7.00;;;;;;;;;;4998855;28;20194;-78
2023/05/03 00:02:34;;;;;;;12.18;6.50;;;;;;;;;;4999335;28;20815;-78
2023/05/03 00:05:00;;;;;;;13.38;7.30;;;;;;;;;;5014665;28;20189;-77
2023/05/03 00:07:26;;;;;;;9.55;6.65;;;;;;;;;;4998476;28;20650;-78
2023/05/03 00:09:52;;;;;;;12.98;8.00;;;;;;;;;;4997573;28;20215;-77
2023/05/03 00:12:18;;;;;;;17.88;7.97;;;;;;;;;;5016070;28;20179;-77
2023/05/03 00:14:45;;;;;;;13.70;7.05;;;;;;;;;;4998987;28;20250;-78
2023/05/03 00:17:11;;;;;;;9.10;7.30;;;;;;;;;;5016025;28;20171;-79
2023/05/03 00:19:38;;;;;;;9.05;7.35;;;;;;;;;;5015484;28;20510;-77
2023/05/03 00:22:04;;;;;;;11.93;7.40;;;;;;;;;;4998550;28;20186;-78
2023/05/03 00:24:30;;;;;;;11.20;8.10;;;;;;;;;;4998506;28;20269;-77
2023/05/03 00:26:56;;;;;;;11.35;7.07;;;;;;;;;;5014612;28;20179;-78
2023/05/03 00:29:22;;;;;;;14.30;6.55;;;;;;;;;;4998277;28;20272;-78
2023/05/03 00:31:48;;;;;;;13.07;6.70;;;;;;;;;;5016142;28;20318;-77
2023/05/03 00:34:15;;;;;;;13.73;7.43;;;;;;;;;;5016226;28;20630;-77
2023/05/03 00:36:41;;;;;;;10.40;6.18;;;;;;;;;;4998333;28;20551;-77
2023/05/03 00:39:07;;;;;;;11.10;6.78;;;;;;;;;;5014852;28;20186;-77
2023/05/03 00:41:33;;;;;;;11.38;6.45;;;;;;;;;;5014422;28;20197;-78
2023/05/03 00:43:59;;;;;;;10.18;6.45;;;;;;;;;;5016000;28;20263;-78
2023/05/03 00:46:25;;;;;;;10.02;6.65;;;;;;;;;;5015224;28;20635;-77
2023/05/03 00:48:51;;;;;;;14.88;6.30;;;;;;;;;;5015572;28;20627;-78
2023/05/03 00:51:18;;;;;;;13.02;6.95;;;;;;;;;;4997737;28;20632;-78
2023/05/03 00:53:44;;;;;;;15.85;7.10;;;;;;;;;;5015905;28;20169;-78
2023/05/03 00:56:11;;;;;;;11.35;7.53;;;;;;;;;;4998182;28;20240;-82
2023/05/03 00:58:39;;;;;;;10.45;8.00;;;;;;;;;;5015464;28;20202;-77
2023/05/03 01:01:08;;;;;;;14.15;7.72;;;;;;;;;;5014065;28;20753;-78
2023/05/03 01:03:36;;;;;;;10.65;7.25;;;;;;;;;;5013886;28;20529;-78
2023/05/03 01:06:05;;;;;;;9.63;7.00;;;;;;;;;;5015184;28;20197;-78
2023/05/03 01:08:35;;;;;;;13.13;7.07;;;;;;;;;;5014379;28;20181;-78
2023/05/03 01:11:12;;;;;;;16.35;7.63;;;;;;;;;;5014713;28;20175;-78
2023/05/03 01:13:52;;;;;;;8.48;6.38;;;;;;;;;;5016321;28;20159;-77
2023/05/03 01:16:18;;;;;;;17.23;8.23;;;;;;;;;;5015697;28;20159;-78
2023/05/03 01:18:48;;;;;;;11.80;6.85;;;;;;;;;;5016050;28;20229;-77
2023/05/03 01:21:17;;;;;;;8.35;6.60;;;;;;;;;;5018247;28;20163;-78
2023/05/03 01:23:46;;;;;;;8.60;6.45;;;;;;;;;;5019333;28;20179;-77
2023/05/03 01:26:22;;;;;;;14.63;6.72;;;;;;;;;;5018722;28;20328;-83
2023/05/03 01:28:48;;;;;;;9.00;6.82;;;;;;;;;;5019099;28;20214;-77
2023/05/03 01:31:34;;;;;;;8.88;7.40;;;;;;;;;;5017730;28;20237;-77
2023/05/03 01:34:11;;;;;;;11.77;6.40;;;;;;;;;;5001198;28;20181;-78
2023/05/03 01:36:38;;;;;;;8.55;6.63;;;;;;;;;;5017250;28;20224;-79
2023/05/03 01:39:08;;;;;;;15.32;7.80;;;;;;;;;;5017813;28;20682;-79
2023/05/03 01:41:35;;;;;;;11.50;7.18;;;;;;;;;;5017354;28;20181;-78
2023/05/03 01:44:02;;;;;;;8.95;7.13;;;;;;;;;;5018022;28;20183;-79
2023/05/03 01:46:28;;;;;;;9.07;6.82;;;;;;;;;;5017244;28;20217;-78
2023/05/03 01:48:54;;;;;;;12.27;7.28;;;;;;;;;;5001149;28;20210;-78
2023/05/03 01:51:20;;;;;;;12.80;7.70;;;;;;;;;;4984961;28;20186;-78
2023/05/03 01:53:46;;;;;;;13.70;7.50;;;;;;;;;;4984959;28;20523;-78
2023/05/03 01:56:12;;;;;;;12.27;7.60;;;;;;;;;;5017459;28;20187;-78
2023/05/03 01:58:38;;;;;;;13.23;8.10;;;;;;;;;;5001268;28;20179;-78
2023/05/03 02:01:05;;;;;;;14.85;7.57;;;;;;;;;;5018200;28;20235;-79
2023/05/03 02:03:31;;;;;;;10.02;7.43;;;;;;;;;;5017076;28;20694;-79
2023/05/03 02:05:57;;;;;;;19.17;8.68;;;;;;;;;;5001636;28;20225;-78
2023/05/03 02:08:24;;;;;;;10.52;7.55;;;;;;;;;;5000991;28;20207;-79
2023/05/03 02:10:50;;;;;;;9.25;7.03;;;;;;;;;;5017112;28;20171;-78
2023/05/03 02:13:16;;;;;;;13.65;7.95;;;;;;;;;;5016901;28;20195;-79
2023/05/03 02:15:42;;;;;;;15.00;7.35;;;;;;;;;;5017442;28;20186;-78
2023/05/03 02:18:08;;;;;;;9.98;7.22;;;;;;;;;;5000764;28;20171;-78
2023/05/03 02:20:36;;;;;;;15.18;7.60;;;;;;;;;;5000669;28;20191;-78
2023/05/03 02:23:03;;;;;;;17.52;7.72;;;;;;;;;;5018169;28;20534;-77
2023/05/03 02:25:29;;;;;;;15.55;8.07;;;;;;;;;;5018388;28;20193;-78
2023/05/03 02:27:55;;;;;;;13.80;8.13;;;;;;;;;;5001420;28;20190;-78
2023/05/03 02:30:21;;;;;;;9.95;7.60;;;;;;;;;;5018102;28;20556;-78
2023/05/03 02:32:47;;;;;;;13.75;8.10;;;;;;;;;;5017974;28;20536;-77
2023/05/03 02:35:13;;;;;;;13.85;8.15;;;;;;;;;;5000115;28;20178;-77
2023/05/03 02:37:39;;;;;;;14.35;8.27;;;;;;;;;;5016283;28;20229;-78
2023/05/03 02:40:06;;;;;;;20.02;9.15;;;;;;;;;;5000843;28;20231;-78
2023/05/03 02:42:32;;;;;;;15.45;8.68;;;;;;;;;;5016903;28;20171;-78
2023/05/03 02:44:58;;;;;;;12.25;7.20;;;;;;;;;;5001305;28;20257;-78
2023/05/03 02:47:24;;;;;;;11.35;9.00;;;;;;;;;;5000249;28;20175;-77
2023/05/03 02:49:50;;;;;;;11.75;7.50;;;;;;;;;;5018168;28;20221;-78
2023/05/03 02:52:16;;;;;;;13.60;8.75;;;;;;;;;;5000797;28;20559;-77
2023/05/03 02:54:42;;;;;;;13.20;8.98;;;;;;;;;;5000386;28;20186;-77
2023/05/03 02:57:08;;;;;;;14.55;8.27;;;;;;;;;;5018119;28;20201;-78
2023/05/03 02:59:34;;;;;;;15.30;8.45;;;;;;;;;;5016668;28;20197;-78
2023/05/03 03:02:00;;;;;;;10.80;8.10;;;;;;;;;;5016617;28;20292;-78
2023/05/03 03:04:26;;;;;;;9.88;7.15;;;;;;;;;;5000179;28;20295;-78
2023/05/03 03:06:55;;;;;;;16.10;7.47;;;;;;;;;;5018002;28;20179;-78
2023/05/03 03:09:21;;;;;;;15.05;8.18;;;;;;;;;;5001217;28;20219;-77
2023/05/03 03:11:47;;;;;;;12.07;7.55;;;;;;;;;;5016265;28;20175;-77
2023/05/03 03:14:13;;;;;;;10.52;7.75;;;;;;;;;;5017655;28;20167;-78
2023/05/03 03:16:39;;;;;;;17.38;8.90;;;;;;;;;;4999782;28;20237;-77
2023/05/03 03:19:05;;;;;;;15.32;9.20;;;;;;;;;;5017590;28;20175;-77
2023/05/03 03:21:31;;;;;;;18.10;8.57;;;;;;;;;;5015902;28;20187;-78
2023/05/03 03:23:58;;;;;;;15.00;8.68;;;;;;;;;;5000503;28;20302;-78
2023/05/03 03:26:25;;;;;;;15.30;7.90;;;;;;;;;;4999975;28;20182;-78
2023/05/03 03:28:51;;;;;;;12.20;8.10;;;;;;;;;;5017294;28;20202;-78
2023/05/03 03:31:17;;;;;;;16.20;8.70;;;;;;;;;;4999995;28;20187;-78
2023/05/03 03:33:43;;;;;;;13.65;8.95;;;;;;;;;;5000226;28;20192;-78
2023/05/03 03:36:09;;;;;;;15.07;8.70;;;;;;;;;;5016380;28;20185;-78
2023/05/03 03:38:35;;;;;;;14.90;8.48;;;;;;;;;;5000318;28;20272;-78
2023/05/03 03:41:01;;;;;;;18.40;8.60;;;;;;;;;;5017698;28;20183;-78
2023/05/03 03:43:27;;;;;;;13.73;8.25;;;;;;;;;;4998848;28;20179;-78
2023/05/03 03:45:53;;;;;;;13.75;8.20;;;;;;;;;;5017550;28;20225;-78
2023/05/03 03:48:19;;;;;;;15.73;8.75;;;;;;;;;;4999740;28;20585;-78
2023/05/03 03:50:45;;;;;;;13.55;8.93;;;;;;;;;;5015935;28;20270;-77
2023/05/03 03:53:11;;;;;;;20.30;10.13;;;;;;;;;;5017654;28;20171;-78
2023/05/03 03:55:37;;;;;;;20.40;9.70;;;;;;;;;;4999886;28;20333;-78
2023/05/03 03:58:04;;;;;;;19.15;10.30;;;;;;;;;;5016938;28;20531;-77
2023/05/03 04:00:31;;;;;;;14.70;8.77;;;;;;;;;;5017064;28;20175;-78
2023/05/03 04:02:57;;;;;;;22.23;11.18;;;;;;;;;;5015466;28;20254;-78
2023/05/03 04:05:23;;;;;;;13.68;9.25;;;;;;;;;;5015473;28;20221;-79
2023/05/03 04:07:49;;;;;;;13.27;8.27;;;;;;;;;;4999369;28;20269;-77
2023/05/03 04:10:15;;;;;;;15.93;10.85;;;;;;;;;;5016946;28;20203;-78
2023/05/03 04:12:41;;;;;;;19.70;9.68;;;;;;;;;;5017071;28;20182;-78
2023/05/03 04:15:07;;;;;;;21.50;9.38;;;;;;;;;;4999974;28;20579;-78
2023/05/03 04:17:34;;;;;;;18.50;9.30;;;;;;;;;;5017063;28;20167;-78
2023/05/03 04:20:04;;;;;;;15.77;9.80;;;;;;;;;;5016878;28;20253;-77
2023/05/03 04:22:31;;;;;;;16.75;9.10;;;;;;;;;;5015730;28;20194;-77
2023/05/03 04:24:59;;;;;;;12.40;9.50;;;;;;;;;;5015927;28;20183;-77
2023/05/03 04:27:26;;;;;;;16.05;9.63;;;;;;;;;;4999499;28;20187;-78
2023/05/03 04:29:52;;;;;;;14.85;9.65;;;;;;;;;;4999245;28;20219;-78
2023/05/03 04:32:22;;;;;;;16.50;8.85;;;;;;;;;;4998982;28;20635;-78
2023/05/03 04:34:51;;;;;;;13.48;7.93;;;;;;;;;;4998762;28;20194;-78
2023/05/03 04:37:20;;;;;;;13.30;8.23;;;;;;;;;;5016315;28;20174;-78
2023/05/03 04:39:47;;;;;;;12.70;8.00;;;;;;;;;;4999372;28;20179;-78
2023/05/03 04:42:17;;;;;;;12.77;8.70;;;;;;;;;;5015739;28;20266;-78
2023/05/03 04:44:43;;;;;;;13.80;8.30;;;;;;;;;;5015093;28;20299;-78
2023/05/03 04:47:09;;;;;;;15.05;8.60;;;;;;;;;;4998842;28;20202;-78
2023/05/03 04:49:36;;;;;;;13.48;7.95;;;;;;;;;;5016191;28;20667;-77
2023/05/03 04:52:02;;;;;;;17.05;7.65;;;;;;;;;;4999161;28;20647;-78
2023/05/03 04:54:28;;;;;;;11.10;8.15;;;;;;;;;;5015068;28;20181;-78
2023/05/03 04:56:55;;;;;;;11.68;8.00;;;;;;;;;;5002774;28;20211;-78
2023/05/03 04:59:21;;;;;;;12.60;7.70;;;;;;;;;;5018987;28;20182;-78
2023/05/03 05:01:47;;;;;;;15.40;7.47;;;;;;;;;;5002556;28;20237;-77
2023/05/03 05:04:13;;;;;;;10.90;7.72;;;;;;;;;;5018610;28;20631;-77
2023/05/03 05:06:40;;;;;;;11.45;7.90;;;;;;;;;;5002177;28;20205;-78
2023/05/03 05:09:07;;;;;;;14.32;8.00;;;;;;;;;;5019060;28;20671;-78
2023/05/03 05:11:33;;;;;;;13.00;7.43;;;;;;;;;;5018293;28;20185;-78
2023/05/03 05:13:59;;;;;;;17.23;8.18;;;;;;;;;;5019784;28;20167;-78
2023/05/03 05:16:25;;;;;;;13.18;7.85;;;;;;;;;;5017930;28;20180;-77
2023/05/03 05:18:51;;;;;;;10.18;7.18;;;;;;;;;;5001951;28;20177;-78
2023/05/03 05:21:17;;;;;;;13.50;8.60;;;;;;;;;;5020102;28;20171;-78
2023/05/03 05:23:43;;;;;;;14.65;8.18;;;;;;;;;;5002035;28;20176;-78
2023/05/03 05:26:09;;;;;;;17.70;8.25;;;;;;;;;;5002225;28;20213;-78
2023/05/03 05:28:36;;;;;;;15.30;8.38;;;;;;;;;;5019521;28;20255;-78
2023/05/03 05:31:02;;;;;;;13.38;10.20;;;;;;;;;;5001954;28;20579;-78
2023/05/03 05:33:28;;;;;;;16.05;9.30;;;;;;;;;;5001763;28;20252;-79
2023/05/03 05:35:54;;;;;;;13.07;8.18;;;;;;;;;;5002488;28;20171;-78
2023/05/03 05:38:20;;;;;;;14.00;8.23;;;;;;;;;;5017858;28;20183;-78
2023/05/03 05:40:46;;;;;;;16.48;8.93;;;;;;;;;;5017555;28;20188;-78
2023/05/03 05:43:12;;;;;;;12.10;7.30;;;;;;;;;;5001643;28;20277;-78
2023/05/03 05:45:38;;;;;;;14.00;8.93;;;;;;;;;;5001644;28;20540;-77
2023/05/03 05:48:04;;;;;;;16.38;9.25;;;;;;;;;;5019708;28;20198;-78
2023/05/03 05:50:31;;;;;;;11.88;9.02;;;;;;;;;;5002082;28;20207;-78
2023/05/03 05:52:57;;;;;;;17.88;8.70;;;;;;;;;;5019633;28;20605;-78
2023/05/03 05:55:23;;;;;;;14.82;9.85;;;;;;;;;;5017718;28;20186;-78
2023/05/03 05:57:49;;;;;;;12.60;8.68;;;;;;;;;;5019408;28;20221;-78
2023/05/03 06:00:16;;;;;;;11.95;8.63;;;;;;;;;;5001690;28;20194;-77
2023/05/03 06:02:42;;;;;;;10.05;9.05;;;;;;;;;;5017280;28;20257;-78
2023/05/03 06:05:10;;;;;;;14.60;9.25;;;;;;;;;;5019415;28;20520;-78
2023/05/03 06:07:36;;;;;;;20.25;10.10;;;;;;;;;;5017276;28;20681;-78
2023/05/03 06:10:02;;;;;;;14.18;8.18;;;;;;;;;;5018611;28;20210;-77
2023/05/03 06:12:29;;;;;;;12.43;8.98;;;;;;;;;;5001830;28;20573;-78
2023/05/03 06:14:55;;;;;;;11.50;8.73;;;;;;;;;;5017633;28;20186;-78
2023/05/03 06:17:22;;;;;;;11.02;8.75;;;;;;;;;;5000848;28;20268;-78
2023/05/03 06:19:50;;;;;;;11.55;8.32;;;;;;;;;;5001356;28;20187;-78
2023/05/03 06:22:16;;;;;;;11.95;8.25;;;;;;;;;;5001794;28;20170;-79
2023/05/03 06:24:42;;;;;;;13.77;9.35;;;;;;;;;;5001161;28;20183;-78
2023/05/03 06:27:08;;;;;;;14.18;8.70;;;;;;;;;;5001245;28;20182;-78
2023/05/03 06:29:34;;;;;;;11.73;7.70;;;;;;;;;;5018208;28;20202;-78
2023/05/03 06:32:00;;;;;;;12.05;8.63;;;;;;;;;;5018696;28;20175;-78
2023/05/03 06:34:26;;;;;;;10.55;8.00;;;;;;;;;;5018762;28;20177;-78
2023/05/03 06:36:53;;;;;;;16.88;7.75;;;;;;;;;;5016680;28;20188;-78
2023/05/03 06:39:19;;;;;;;12.75;8.95;;;;;;;;;;5017102;28;20186;-78
2023/05/03 06:41:45;;;;;;;16.15;9.27;;;;;;;;;;5000375;28;20190;-78
2023/05/03 06:44:11;;;;;;;16.67;8.32;;;;;;;;;;5001255;28;20228;-78
2023/05/03 06:46:37;;;;;;;13.05;8.05;;;;;;;;;;5000617;28;20181;-78
2023/05/03 06:49:03;;;;;;;15.32;8.43;;;;;;;;;;5016956;28;20214;-78
2023/05/03 06:51:31;;;;;;;16.15;8.60;;;;;;;;;;5016788;28;20182;-78
2023/05/03 06:54:05;;;;;;;14.82;8.63;;;;;;;;;;5000315;28;20175;-78
2023/05/03 06:56:32;;;;;;;12.30;7.32;;;;;;;;;;5016461;28;20167;-78
2023/05/03 06:59:00;;;;;;;17.70;8.57;;;;;;;;;;5016676;28;20232;-78
2023/05/03 07:01:26;;;;;;;10.68;7.40;;;;;;;;;;5016205;28;20283;-78
2023/05/03 07:03:52;;;;;;;11.68;8.13;;;;;;;;;;4999926;28;20658;-78
2023/05/03 07:06:18;;;;;;;12.23;8.18;;;;;;;;;;5017782;28;20573;-78
2023/05/03 07:08:44;;;;;;;8.18;7.00;;;;;;;;;;5017197;28;20167;-75
2023/05/03 07:11:10;;;;;;;14.07;7.20;;;;;;;;;;5017955;28;20502;-78
2023/05/03 07:13:36;;;;;;;9.85;7.80;;;;;;;;;;5015941;28;20229;-79
2023/05/03 07:16:03;;;;;;;10.68;8.15;;;;;;;;;;5000316;28;20183;-77
2023/05/03 07:18:29;;;;;;;12.02;7.35;;;;;;;;;;4999732;28;20186;-77
2023/05/03 07:20:55;;;;;;;10.85;5.93;;;;;;;;;;4999324;28;20202;-78
2023/05/03 07:23:21;;;;;;;9.10;6.03;;;;;;;;;;5000243;28;20270;-78
2023/05/03 07:25:47;;;;;;;8.98;6.40;;;;;;;;;;5017027;28;20182;-77
2023/05/03 07:28:14;;;;;;;7.78;5.72;;;;;;;;;;5016003;28;20639;-77
2023/05/03 07:30:40;;;;;;;11.05;6.40;;;;;;;;;;5016981;28;20209;-78
2023/05/03 07:33:06;;;;;;;7.63;6.20;;;;;;;;;;4999539;28;20639;-78
2023/05/03 07:35:32;;;;;;;8.32;5.60;;;;;;;;;;5016886;28;20175;-78
2023/05/03 07:37:58;;;;;;;10.90;5.90;;;;;;;;;;5016815;28;20179;-78
2023/05/03 07:40:27;;;;;;;10.13;5.78;;;;;;;;;;5015655;28;20544;-78
2023/05/03 07:42:53;;;;;;;8.07;5.90;;;;;;;;;;4999418;28;20179;-78
2023/05/03 07:45:19;;;;;;;11.88;7.20;;;;;;;;;;4999101;28;20583;-77
2023/05/03 07:47:45;;;;;;;11.07;6.93;;;;;;;;;;5016468;28;20179;-78
2023/05/03 07:50:11;;;;;;;8.32;6.90;;;;;;;;;;5015267;28;20234;-78
2023/05/03 07:52:38;;;;;;;10.90;7.00;;;;;;;;;;5015241;28;20171;-77
2023/05/03 07:55:05;;;;;;;12.27;6.90;;;;;;;;;;5016704;28;20171;-78
2023/05/03 07:57:31;;;;;;;10.75;7.30;;;;;;;;;;5014985;28;20174;-78
2023/05/03 07:59:57;;;;;;;10.65;6.90;;;;;;;;;;5016562;28;20221;-78
2023/05/03 08:02:23;;;;;;;20.00;7.13;;;;;;;;;;4998167;28;20239;-78
2023/05/03 08:04:49;;;;;;;8.85;5.50;;;;;;;;;;5014801;28;20520;-78
2023/05/03 08:07:18;;;;;;;6.85;5.05;;;;;;;;;;5014852;28;20179;-77
2023/05/03 08:09:44;;;;;;;8.45;6.05;;;;;;;;;;5014393;28;20601;-78
2023/05/03 08:12:10;;;;;;;10.57;5.70;;;;;;;;;;5014989;28;20186;-78
2023/05/03 08:14:36;;;;;;;8.53;5.10;;;;;;;;;;5014200;28;20190;-84
2023/05/03 08:17:05;;;;;;;5.50;4.90;;;;;;;;;;5015016;28;20419;-78
2023/05/03 08:19:31;;;;;;;6.37;5.07;;;;;;;;;;5015374;28;20410;-78
2023/05/03 08:21:57;;;;;;;8.17;5.63;;;;;;;;;;4997971;28;20429;-78
2023/05/03 08:24:24;;;;;;;5.30;4.80;;;;;;;;;;4998115;28;20410;-78
2023/05/03 08:26:50;;;;;;;7.33;5.43;;;;;;;;;;5014365;28;20823;-78
2023/05/03 08:29:16;;;;;;;5.37;4.87;;;;;;;;;;4997489;28;20473;-78
2023/05/03 08:31:42;;;;;;;7.10;5.80;;;;;;;;;;5013571;28;20404;-78
2023/05/03 08:34:09;;;;;;;5.60;4.73;;;;;;;;;;5014685;28;20904;-78
2023/05/03 08:36:37;;;;;;;6.77;4.80;;;;;;;;;;5014430;28;20418;-78
2023/05/03 08:39:06;;;;;;;7.57;4.87;;;;;;;;;;4998477;28;20934;-78
2023/05/03 08:41:33;;;;;;;10.80;4.97;;;;;;;;;;5015307;28;20409;-78
2023/05/03 08:44:00;;;;;;;5.83;5.23;;;;;;;;;;5014863;28;20468;-78
2023/05/03 08:46:27;;;;;;;7.80;5.17;;;;;;;;;;5015383;28;20384;-78
2023/05/03 08:48:53;;;;;;;6.13;4.30;;;;;;;;;;5014701;28;20417;-78
2023/05/03 08:51:24;;;;;;;7.90;4.77;;;;;;;;;;4997826;28;20403;-77
2023/05/03 08:53:50;;;;;;;6.93;5.00;;;;;;;;;;5013818;28;20443;-78
2023/05/03 08:56:29;;;;;;;8.20;5.07;;;;;;;;;;5015245;28;20392;-78
2023/05/03 08:58:56;;;;;;;9.27;5.37;;;;;;;;;;5013239;28;20436;-78
2023/05/03 09:01:22;;;;;;;13.17;5.07;;;;;;;;;;5013680;28;20484;-78
2023/05/03 09:03:49;;;;;;;5.27;4.33;;;;;;;;;;4996920;28;20408;-78
2023/05/03 09:06:20;;;;;;;6.80;4.40;;;;;;;;;;5013269;28;20407;-78
2023/05/03 09:08:46;;;;;;;6.27;4.50;;;;;;;;;;5012483;28;20494;-78
2023/05/03 09:11:21;;;;;;;14.80;4.90;;;;;;;;;;5013096;28;20449;-78
2023/05/03 09:13:47;;;;;;;6.97;4.27;;;;;;;;;;5013924;28;20418;-78
2023/05/03 09:16:22;;;;;;;5.10;4.33;;;;;;;;;;5013945;28;20412;-79
2023/05/03 09:18:57;;;;;;;5.27;4.37;;;;;;;;;;5013689;28;20423;-79
2023/05/03 09:21:24;;;;;;;5.30;4.10;;;;;;;;;;5012647;28;20432;-79
2023/05/03 09:23:50;;;;;;;5.93;4.20;;;;;;;;;;5013350;28;20395;-79
2023/05/03 09:26:32;;;;;;;9.30;4.90;;;;;;;;;;5014031;28;20485;-78
2023/05/03 09:29:00;;;;;;;4.73;4.00;;;;;;;;;;5013737;28;20864;-78
2023/05/03 09:31:27;;;;;;;9.80;4.10;;;;;;;;;;4996208;28;20514;-78
2023/05/03 09:33:53;;;;;;;7.80;3.63;;;;;;;;;;5012100;28;20925;-78
2023/05/03 09:36:19;;;;;;;6.53;4.10;;;;;;;;;;5013324;28;20392;-78
2023/05/03 09:38:45;;;;;;;5.63;4.00;;;;;;;;;;4995733;28;20453;-79
2023/05/03 09:41:11;;;;;;;7.30;4.20;;;;;;;;;;5011805;28;20422;-78
2023/05/03 09:43:48;;;;;;;5.03;4.10;;;;;;;;;;4999292;28;20417;-78
2023/05/03 09:46:14;;;;;;;4.40;3.47;;;;;;;;;;5016889;28;20441;-78
2023/05/03 09:48:41;;;;;;;4.63;3.77;;;;;;;;;;4999315;28;20464;-78
2023/05/03 09:51:07;;;;;;;5.23;3.60;;;;;;;;;;5016486;28;20402;-78
2023/05/03 09:53:34;;;;;;;6.50;3.93;;;;;;;;;;5015236;28;20506;-78
2023/05/03 09:56:02;;;;;;;6.03;4.83;;;;;;;;;;4999252;28;20418;-78
2023/05/03 09:58:33;;;;;;;6.40;3.70;;;;;;;;;;5015321;28;20440;-78
2023/05/03 10:00:59;;;;;;;4.00;3.70;;;;;;;;;;5014647;28;20488;-78
2023/05/03 10:04:00;;;;;;;7.63;4.30;;;;;;;;;;4998738;28;20429;-78
2023/05/03 10:06:35;;;;;;;5.70;4.10;;;;;;;;;;5016276;28;20402;-78
2023/05/03 10:09:15;;;;;;;5.50;4.13;;;;;;;;;;5014550;28;20477;-78
2023/05/03 10:11:43;;;;;;;7.53;4.40;;;;;;;;;;5016167;28;20460;-78
2023/05/03 10:14:09;;;;;;;4.90;3.47;;;;;;;;;;5016280;28;20413;-78
2023/05/03 10:16:40;;;;;;;3.73;3.27;;;;;;;;;;5014786;28;20496;-78
2023/05/03 10:19:10;;;;;;;5.40;4.00;;;;;;;;;;5015666;28;20390;-78
2023/05/03 10:21:47;;;;;;;6.00;4.10;;;;;;;;;;5014664;28;20425;-78
2023/05/03 10:24:15;;;;;;;4.67;3.83;;;;;;;;;;5014596;28;20460;-78
2023/05/03 10:26:46;;;;;;;5.97;3.90;;;;;;;;;;5014089;28;20452;-78
2023/05/03 10:29:50;;;;;;;7.67;3.50;;;;;;;;;;5016052;28;20475;-80
2023/05/03 10:32:29;;;;;;;4.77;4.33;;;;;;;;;;4994457;28;20809;-78
2023/05/03 10:35:03;;;;;;;4.33;3.40;;;;;;;;;;5015306;28;20420;-79
2023/05/03 10:37:29;;;;;;;5.33;4.13;;;;;;;;;;5015886;28;20442;-78
2023/05/03 10:39:55;;;;;;;4.53;4.13;;;;;;;;;;5014042;28;20468;-78
2023/05/03 10:42:27;;;;;;;4.27;3.87;;;;;;;;;;5014220;28;20428;-78
2023/05/03 10:44:54;;;;;;;5.53;3.63;;;;;;;;;;5015566;28;20478;-78
2023/05/03 10:47:22;;;;;;;5.67;3.80;;;;;;;;;;5014126;28;20413;-78
2023/05/03 10:50:08;;;;;;;5.97;4.10;;;;;;;;;;5013971;28;20476;-78
2023/05/03 10:52:40;;;;;;;5.17;3.90;;;;;;;;;;5013592;28;20453;-78
2023/05/03 10:55:10;;;;;;;5.60;4.43;;;;;;;;;;5013644;28;21030;-78
2023/05/03 10:57:37;;;;;;;5.47;3.50;;;;;;;;;;5015436;28;20500;-78
2023/05/03 11:00:09;;;;;;;4.87;3.90;;;;;;;;;;5013671;28;20414;-78
2023/05/03 11:02:37;;;;;;;4.20;3.80;;;;;;;;;;5015067;28;20481;-79
2023/05/03 11:05:07;;;;;;;6.93;3.50;;;;;;;;;;5013733;28;20413;-78
2023/05/03 11:07:34;;;;;;;9.10;3.60;;;;;;;;;;5015084;28;20498;-78
2023/05/03 11:10:00;;;;;;;4.83;3.83;;;;;;;;;;4980973;28;20473;-78
2023/05/03 11:12:26;;;;;;;6.73;4.07;;;;;;;;;;5013279;28;20429;-79
2023/05/03 11:14:52;;;;;;;4.50;3.93;;;;;;;;;;4997263;28;20414;-79
2023/05/03 11:17:18;;;;;;;4.80;4.10;;;;;;;;;;5013672;28;20496;-78
2023/05/03 11:19:44;;;;;;;4.63;3.47;;;;;;;;;;5013661;28;20816;-78
2023/05/03 11:22:11;;;;;;;4.63;3.20;;;;;;;;;;5014349;28;20381;-79
2023/05/03 11:24:37;;;;;;;5.70;3.67;;;;;;;;;;4997505;28;20406;-78
2023/05/03 11:27:03;;;;;;;4.17;3.17;;;;;;;;;;5013157;28;20418;-78
2023/05/03 11:29:31;;;;;;;4.70;3.43;;;;;;;;;;4997030;28;20572;-79
2023/05/03 11:31:57;;;;;;;5.40;4.20;;;;;;;;;;5012997;28;20508;-78
2023/05/03 11:34:23;;;;;;;6.60;3.93;;;;;;;;;;4996711;28;20449;-79
2023/05/03 11:36:50;;;;;;;3.60;3.30;;;;;;;;;;5013046;28;20490;-80
2023/05/03 11:39:16;;;;;;;4.63;3.33;;;;;;;;;;4996962;28;20445;-79
2023/05/03 11:41:42;;;;;;;4.47;3.00;;;;;;;;;;5013047;28;20834;-79
2023/05/03 11:44:08;;;;;;;5.87;3.57;;;;;;;;;;5014133;28;20409;-79
2023/05/03 11:46:36;;;;;;;5.90;4.47;;;;;;;;;;5014212;28;20404;-79
2023/05/03 11:49:02;;;;;;;3.73;3.37;;;;;;;;;;5014025;28;20764;-79
2023/05/03 11:51:30;;;;;;;5.67;3.60;;;;;;;;;;4996931;28;20398;-79
2023/05/03 11:53:56;;;;;;;4.10;3.20;;;;;;;;;;5013781;28;20442;-80
2023/05/03 11:56:23;;;;;;;5.07;3.20;;;;;;;;;;4996720;28;20398;-79
2023/05/03 11:58:50;;;;;;;4.53;3.60;;;;;;;;;;5012940;28;20521;-79
2023/05/03 12:01:16;;;;;;;6.47;3.67;;;;;;;;;;5012411;28;20469;-79
2023/05/03 12:03:42;;;;;;;3.87;3.23;;;;;;;;;;4996678;28;20406;-79
2023/05/03 12:06:08;;;;;;;6.73;3.00;;;;;;;;;;5012918;28;20442;-79
2023/05/03 12:08:34;;;;;;;6.77;3.50;;;;;;;;;;4996447;28;20752;-79
2023/05/03 12:11:00;;;;;;;4.10;3.53;;;;;;;;;;4995899;28;20464;-79
2023/05/03 12:13:31;;;;;;;3.47;3.17;;;;;;;;;;5012702;28;20427;-79
2023/05/03 12:16:02;;;;;;;6.80;3.53;;;;;;;;;;5013552;28;20489;-79
2023/05/03 12:18:44;;;;;;;5.47;3.87;;;;;;;;;;5013676;28;20441;-78
2023/05/03 12:21:11;;;;;;;8.00;3.73;;;;;;;;;;5013109;28;20391;-79
2023/05/03 12:23:37;;;;;;;3.60;2.97;;;;;;;;;;5012412;28;20432;-78
2023/05/03 12:26:03;;;;;;;5.30;3.67;;;;;;;;;;5012215;28;20745;-78
2023/05/03 12:28:29;;;;;;;7.30;4.00;;;;;;;;;;4996216;28;20757;-78
2023/05/03 12:30:55;;;;;;;8.23;4.00;;;;;;;;;;5013227;28;20481;-79
2023/05/03 12:33:21;;;;;;;3.70;3.40;;;;;;;;;;4996162;28;20425;-78
2023/05/03 12:35:47;;;;;;;4.13;3.50;;;;;;;;;;5012230;28;20420;-78
2023/05/03 12:38:13;;;;;;;3.70;3.40;;;;;;;;;;4995419;28;20513;-78
2023/05/03 12:40:39;;;;;;;3.43;3.10;;;;;;;;;;4995991;28;20968;-79
2023/05/03 12:43:05;;;;;;;8.53;3.90;;;;;;;;;;4995725;28;20452;-78
2023/05/03 12:45:31;;;;;;;3.53;3.23;;;;;;;;;;4995777;28;20465;-79
2023/05/03 12:47:58;;;;;;;3.67;2.67;;;;;;;;;;4995380;28;20501;-79
2023/05/03 12:50:24;;;;;;;5.73;3.77;;;;;;;;;;5012784;28;20793;-79
2023/05/03 12:52:50;;;;;;;6.00;3.40;;;;;;;;;;5013252;28;20402;-79
2023/05/03 12:55:16;;;;;;;5.17;4.10;;;;;;;;;;5011742;28;20501;-79
2023/05/03 12:57:42;;;;;;;5.20;4.13;;;;;;;;;;4995697;28;20473;-79
2023/05/03 13:00:09;;;;;;;4.87;3.33;;;;;;;;;;5013046;28;20424;-79
2023/05/03 13:02:35;;;;;;;4.77;3.50;;;;;;;;;;5011354;28;20517;-79
2023/05/03 13:05:01;;;;;;;5.30;3.10;;;;;;;;;;4995185;28;20432;-79
2023/05/03 13:07:29;;;;;;;3.87;3.07;;;;;;;;;;4996174;28;20480;-79
2023/05/03 13:09:55;;;;;;;4.93;3.60;;;;;;;;;;5011726;28;20464;-80
2023/05/03 13:12:21;;;;;;;5.97;3.30;;;;;;;;;;5012287;28;20422;-79
2023/05/03 13:14:48;;;;;;;4.30;3.70;;;;;;;;;;5013202;28;20402;-79
2023/05/03 13:17:15;;;;;;;8.63;3.73;;;;;;;;;;5014486;28;21376;-79
2023/05/03 13:19:46;;;;;;;4.13;3.60;;;;;;;;;;5015590;28;20428;-79
2023/05/03 13:22:12;;;;;;;7.13;3.47;;;;;;;;;;5016673;28;20390;-79
2023/05/03 13:24:38;;;;;;;5.70;3.40;;;;;;;;;;5015574;28;20414;-79
2023/05/03 13:27:05;;;;;;;7.50;3.20;;;;;;;;;;5016849;28;20413;-79
2023/05/03 13:29:31;;;;;;;5.63;3.57;;;;;;;;;;5015660;28;20969;-79
2023/05/03 13:31:57;;;;;;;3.30;3.00;;;;;;;;;;5016490;28;20417;-79
2023/05/03 13:34:23;;;;;;;3.53;2.97;;;;;;;;;;4999296;28;20418;-79
2023/05/03 13:36:49;;;;;;;5.27;2.87;;;;;;;;;;4999309;28;20406;-79
2023/05/03 13:39:15;;;;;;;8.27;3.93;;;;;;;;;;5016422;28;20501;-79
2023/05/03 13:41:42;;;;;;;4.80;3.30;;;;;;;;;;5015394;28;20426;-79
2023/05/03 13:44:08;;;;;;;3.67;3.10;;;;;;;;;;5014944;28;20918;-79
2023/05/03 13:46:39;;;;;;;7.63;2.87;;;;;;;;;;5016565;28;20480;-79
2023/05/03 13:49:06;;;;;;;6.37;3.00;;;;;;;;;;5014951;28;20883;-79
2023/05/03 13:51:32;;;;;;;4.83;3.17;;;;;;;;;;5015086;28;20426;-79
2023/05/03 13:54:01;;;;;;;4.90;2.87;;;;;;;;;;5016152;28;20806;-80
2023/05/03 13:56:28;;;;;;;4.90;2.90;;;;;;;;;;5015169;28;20464;-79
2023/05/03 13:58:54;;;;;;;4.93;2.80;;;;;;;;;;5014998;28;20418;-79
2023/05/03 14:01:21;;;;;;;4.70;2.70;;;;;;;;;;4998331;28;20462;-80
2023/05/03 14:03:47;;;;;;;6.27;2.47;;;;;;;;;;5016705;28;20433;-82
2023/05/03 14:06:13;;;;;;;3.83;2.80;;;;;;;;;;5014670;28;20459;-81
2023/05/03 14:08:39;;;;;;;3.90;2.60;;;;;;;;;;4998607;28;20506;-81
2023/05/03 14:11:05;;;;;;;5.07;2.70;;;;;;;;;;5013692;28;20461;-81
2023/05/03 14:13:31;;;;;;;2.83;2.57;;;;;;;;;;4998414;28;20520;-81
2023/05/03 14:15:57;;;;;;;6.17;3.30;;;;;;;;;;5015000;28;20880;-81
2023/05/03 14:18:23;;;;;;;3.67;2.83;;;;;;;;;;5014089;28;20449;-80
2023/05/03 14:20:49;;;;;;;6.10;3.20;;;;;;;;;;5013884;28;20557;-81
2023/05/03 14:23:16;;;;;;;4.80;2.63;;;;;;;;;;4997549;28;20406;-87
2023/05/03 14:25:42;;;;;;;4.90;3.00;;;;;;;;;;5008859;28;20421;-85
2023/05/03 14:28:08;;;;;;;4.70;2.40;;;;;;;;;;4983158;28;20422;-86
2023/05/03 14:30:35;;;;;;;4.57;2.77;;;;;;;;;;4987370;28;21039;-87
2023/05/03 14:33:01;;;;;;;2.97;2.60;;;;;;;;;;5018228;28;20413;-86
2023/05/03 14:35:27;;;;;;;2.57;2.37;;;;;;;;;;5018079;28;20822;-87